sensor_id;sensor_type;location;lat;lon;timestamp;temperature;humidity
15274;DHT22;7738;49.532;11.156;2023-09-18T00:04:52;17.50;99.90
15274;DHT22;7738;49.532;11.156;2023-09-18T00:07:25;17.50;99.90
15274;DHT22;7738;49.532;11.156;2023-09-18T00:09:55;17.50;99.90
15274;DHT22;7738;49.532;11.156;2023-09-18T00:12:25;17.40;99.90
15274;DHT22;7738;49.532;11.156;2023-09-18T00:22:29;17.20;99.90
15274;DHT22;7738;49.532;11.156;2023-09-18T00:37:35;17.30;99.90
15274;DHT22;7738;49.532;11.156;2023-09-18T00:40:18;17.30;99.90
15274;DHT22;7738;49.532;11.156;2023-09-18T00:47:51;17.30;99.90
15274;DHT22;7738;49.532;11.156;2023-09-18T00:50:22;16.70;99.90
15274;DHT22;7738;49.532;11.156;2023-09-18T00:52:56;17.20;99.90
15274;DHT22;7738;49.532;11.156;2023-09-18T00:55:27;17.30;99.90
15274;DHT22;7738;49.532;11.156;2023-09-18T01:00:28;17.20;99.90
15274;DHT22;7738;49.532;11.156;2023-09-18T01:02:58;17.20;99.90
15274;DHT22;7738;49.532;11.156;2023-09-18T01:05:31;17.20;99.90
15274;DHT22;7738;49.532;11.156;2023-09-18T01:08:06;17.10;99.90
15274;DHT22;7738;49.532;11.156;2023-09-18T01:10:48;17.10;99.90
15274;DHT22;7738;49.532;11.156;2023-09-18T01:13:23;17.10;99.90
15274;DHT22;7738;49.532;11.156;2023-09-18T01:16:04;17.10;99.90
15274;DHT22;7738;49.532;11.156;2023-09-18T01:23:40;17.00;99.90
15274;DHT22;7738;49.532;11.156;2023-09-18T01:26:10;17.00;99.90
15274;DHT22;7738;49.532;11.156;2023-09-18T01:33:42;16.90;99.90
15274;DHT22;7738;49.532;11.156;2023-09-18T01:36:16;16.80;99.90
15274;DHT22;7738;49.532;11.156;2023-09-18T01:38:50;16.80;99.90
15274;DHT22;7738;49.532;11.156;2023-09-18T01:41:21;16.70;99.90
15274;DHT22;7738;49.532;11.156;2023-09-18T01:43:51;16.80;99.90
15274;DHT22;7738;49.532;11.156;2023-09-18T01:46:22;16.70;99.90
15274;DHT22;7738;49.532;11.156;2023-09-18T01:48:53;16.70;99.90
15274;DHT22;7738;49.532;11.156;2023-09-18T01:53:56;16.60;99.90
15274;DHT22;7738;49.532;11.156;2023-09-18T01:58:57;16.50;99.90
15274;DHT22;7738;49.532;11.156;2023-09-18T02:06:50;16.40;99.90
15274;DHT22;7738;49.532;11.156;2023-09-18T02:09:23;19.00;99.90
15274;DHT22;7738;49.532;11.156;2023-09-18T02:11:53;16.30;99.90
15274;DHT22;7738;49.532;11.156;2023-09-18T02:16:54;16.20;99.90
15274;DHT22;7738;49.532;11.156;2023-09-18T02:21:56;16.30;99.90
15274;DHT22;7738;49.532;11.156;2023-09-18T02:24:30;16.20;99.90
15274;DHT22;7738;49.532;11.156;2023-09-18T02:27:03;16.30;99.90
15274;DHT22;7738;49.532;11.156;2023-09-18T02:32:04;16.10;99.90
15274;DHT22;7738;49.532;11.156;2023-09-18T02:34:35;16.10;99.90
15274;DHT22;7738;49.532;11.156;2023-09-18T02:37:05;16.10;99.90
15274;DHT22;7738;49.532;11.156;2023-09-18T02:39:38;16.10;99.90
15274;DHT22;7738;49.532;11.156;2023-09-18T02:42:09;16.00;99.90
15274;DHT22;7738;49.532;11.156;2023-09-18T02:44:39;16.00;99.90
15274;DHT22;7738;49.532;11.156;2023-09-18T02:47:09;15.90;99.90
15274;DHT22;7738;49.532;11.156;2023-09-18T02:54:43;15.80;99.90
15274;DHT22;7738;49.532;11.156;2023-09-18T02:57:13;15.80;99.90
15274;DHT22;7738;49.532;11.156;2023-09-18T03:09:48;15.60;99.90
15274;DHT22;7738;49.532;11.156;2023-09-18T03:24:55;15.30;99.90
15274;DHT22;7738;49.532;11.156;2023-09-18T03:40:03;15.40;99.90
15274;DHT22;7738;49.532;11.156;2023-09-18T03:45:06;15.40;99.90
15274;DHT22;7738;49.532;11.156;2023-09-18T03:47:38;16.50;99.90
15274;DHT22;7738;49.532;11.156;2023-09-18T03:50:10;15.50;99.90
15274;DHT22;7738;49.532;11.156;2023-09-18T03:55:15;15.60;99.90
15274;DHT22;7738;49.532;11.156;2023-09-18T04:10:22;15.70;99.90
15274;DHT22;7738;49.532;11.156;2023-09-18T04:12:52;15.60;99.90
15274;DHT22;7738;49.532;11.156;2023-09-18T04:15:22;15.60;99.90
15274;DHT22;7738;49.532;11.156;2023-09-18T04:20:23;15.60;99.90
15274;DHT22;7738;49.532;11.156;2023-09-18T04:23:19;15.60;99.90
15274;DHT22;7738;49.532;11.156;2023-09-18T04:28:56;15.50;99.90
15274;DHT22;7738;49.532;11.156;2023-09-18T04:31:26;15.50;99.90
15274;DHT22;7738;49.532;11.156;2023-09-18T04:33:57;15.60;99.90
15274;DHT22;7738;49.532;11.156;2023-09-18T04:36:28;15.60;99.90
15274;DHT22;7738;49.532;11.156;2023-09-18T04:39:01;15.60;99.90
15274;DHT22;7738;49.532;11.156;2023-09-18T04:41:33;15.60;99.90
15274;DHT22;7738;49.532;11.156;2023-09-18T04:44:08;15.60;99.90
15274;DHT22;7738;49.532;11.156;2023-09-18T04:46:40;15.70;99.90
15274;DHT22;7738;49.532;11.156;2023-09-18T04:49:11;15.70;99.90
15274;DHT22;7738;49.532;11.156;2023-09-18T04:51:42;15.60;99.90
15274;DHT22;7738;49.532;11.156;2023-09-18T04:54:13;15.60;99.90
15274;DHT22;7738;49.532;11.156;2023-09-18T04:56:43;15.50;99.90
15274;DHT22;7738;49.532;11.156;2023-09-18T04:59:15;15.60;99.90
15274;DHT22;7738;49.532;11.156;2023-09-18T05:01:46;15.70;99.90
15274;DHT22;7738;49.532;11.156;2023-09-18T05:04:16;15.90;99.90
15274;DHT22;7738;49.532;11.156;2023-09-18T05:06:46;15.90;99.90
15274;DHT22;7738;49.532;11.156;2023-09-18T05:09:16;15.90;99.90
15274;DHT22;7738;49.532;11.156;2023-09-18T05:11:46;15.90;99.90
15274;DHT22;7738;49.532;11.156;2023-09-18T05:14:20;15.90;99.90
15274;DHT22;7738;49.532;11.156;2023-09-18T05:16:50;15.90;99.90
15274;DHT22;7738;49.532;11.156;2023-09-18T05:19:20;15.90;99.90
15274;DHT22;7738;49.532;11.156;2023-09-18T05:21:50;15.90;99.90
15274;DHT22;7738;49.532;11.156;2023-09-18T05:24:20;15.90;99.90
15274;DHT22;7738;49.532;11.156;2023-09-18T05:26:54;15.90;99.90
15274;DHT22;7738;49.532;11.156;2023-09-18T05:29:26;16.40;99.90
15274;DHT22;7738;49.532;11.156;2023-09-18T05:31:57;15.90;99.90
15274;DHT22;7738;49.532;11.156;2023-09-18T05:34:27;16.00;99.90
15274;DHT22;7738;49.532;11.156;2023-09-18T05:36:57;18.80;99.90
15274;DHT22;7738;49.532;11.156;2023-09-18T05:39:27;16.00;99.90
15274;DHT22;7738;49.532;11.156;2023-09-18T05:41:57;16.10;99.90
15274;DHT22;7738;49.532;11.156;2023-09-18T05:44:30;16.10;99.90
15274;DHT22;7738;49.532;11.156;2023-09-18T05:47:00;16.20;99.90
15274;DHT22;7738;49.532;11.156;2023-09-18T05:49:31;16.30;99.90
15274;DHT22;7738;49.532;11.156;2023-09-18T05:52:03;16.30;99.90
15274;DHT22;7738;49.532;11.156;2023-09-18T05:54:33;16.30;99.90
15274;DHT22;7738;49.532;11.156;2023-09-18T05:59:37;16.40;99.90
15274;DHT22;7738;49.532;11.156;2023-09-18T06:04:39;16.50;99.90
15274;DHT22;7738;49.532;11.156;2023-09-18T06:07:09;16.50;99.90
15274;DHT22;7738;49.532;11.156;2023-09-18T06:09:40;16.60;99.90
15274;DHT22;7738;49.532;11.156;2023-09-18T06:12:10;16.70;99.90
15274;DHT22;7738;49.532;11.156;2023-09-18T06:14:43;16.70;99.90
15274;DHT22;7738;49.532;11.156;2023-09-18T06:17:15;18.60;99.90
15274;DHT22;7738;49.532;11.156;2023-09-18T06:19:45;16.80;99.90
15274;DHT22;7738;49.532;11.156;2023-09-18T06:22:16;18.50;99.90
15274;DHT22;7738;49.532;11.156;2023-09-18T06:24:46;16.90;99.90
15274;DHT22;7738;49.532;11.156;2023-09-18T06:27:16;16.90;99.90
15274;DHT22;7738;49.532;11.156;2023-09-18T06:29:49;17.00;99.90
15274;DHT22;7738;49.532;11.156;2023-09-18T06:32:19;17.00;99.90
15274;DHT22;7738;49.532;11.156;2023-09-18T06:34:49;17.00;99.90
15274;DHT22;7738;49.532;11.156;2023-09-18T06:37:19;17.10;99.90
15274;DHT22;7738;49.532;11.156;2023-09-18T06:39:49;17.20;99.90
15274;DHT22;7738;49.532;11.156;2023-09-18T06:42:19;17.10;99.90
15274;DHT22;7738;49.532;11.156;2023-09-18T06:44:59;17.20;99.90
15274;DHT22;7738;49.532;11.156;2023-09-18T06:47:30;17.30;99.90
15274;DHT22;7738;49.532;11.156;2023-09-18T06:50:01;17.60;99.90
15274;DHT22;7738;49.532;11.156;2023-09-18T06:52:31;17.80;99.90
15274;DHT22;7738;49.532;11.156;2023-09-18T06:55:01;17.80;99.90
15274;DHT22;7738;49.532;11.156;2023-09-18T06:57:32;17.90;99.90
15274;DHT22;7738;49.532;11.156;2023-09-18T07:00:06;17.80;99.90
15274;DHT22;7738;49.532;11.156;2023-09-18T07:02:36;17.90;99.90
15274;DHT22;7738;49.532;11.156;2023-09-18T07:07:37;17.90;99.90
15274;DHT22;7738;49.532;11.156;2023-09-18T07:10:07;18.00;99.90
15274;DHT22;7738;49.532;11.156;2023-09-18T07:12:38;18.10;99.90
15274;DHT22;7738;49.532;11.156;2023-09-18T07:15:10;18.30;99.90
15274;DHT22;7738;49.532;11.156;2023-09-18T07:20:11;18.60;99.90
15274;DHT22;7738;49.532;11.156;2023-09-18T07:22:47;18.70;99.90
15274;DHT22;7738;49.532;11.156;2023-09-18T07:25:17;18.80;99.90
15274;DHT22;7738;49.532;11.156;2023-09-18T07:27:47;19.00;99.90
15274;DHT22;7738;49.532;11.156;2023-09-18T07:30:20;19.00;99.90
15274;DHT22;7738;49.532;11.156;2023-09-18T07:32:55;19.40;99.90
15274;DHT22;7738;49.532;11.156;2023-09-18T07:35:26;19.60;99.90
15274;DHT22;7738;49.532;11.156;2023-09-18T07:37:56;19.60;99.90
15274;DHT22;7738;49.532;11.156;2023-09-18T07:40:26;19.70;99.90
15274;DHT22;7738;49.532;11.156;2023-09-18T07:42:56;20.70;99.90
15274;DHT22;7738;49.532;11.156;2023-09-18T07:45:29;19.90;99.90
15274;DHT22;7738;49.532;11.156;2023-09-18T07:50:30;20.00;99.90
15274;DHT22;7738;49.532;11.156;2023-09-18T07:53:00;20.10;99.90
15274;DHT22;7738;49.532;11.156;2023-09-18T07:55:30;20.10;99.90
15274;DHT22;7738;49.532;11.156;2023-09-18T07:58:00;20.10;99.90
15274;DHT22;7738;49.532;11.156;2023-09-18T08:00:34;20.20;99.90
15274;DHT22;7738;49.532;11.156;2023-09-18T08:03:04;20.20;99.90
15274;DHT22;7738;49.532;11.156;2023-09-18T08:05:34;21.40;99.90
15274;DHT22;7738;49.532;11.156;2023-09-18T08:08:05;20.40;99.90
15274;DHT22;7738;49.532;11.156;2023-09-18T08:10:36;20.40;99.90
15274;DHT22;7738;49.532;11.156;2023-09-18T08:13:07;20.50;99.90
15274;DHT22;7738;49.532;11.156;2023-09-18T08:15:40;20.50;99.90
15274;DHT22;7738;49.532;11.156;2023-09-18T08:18:11;21.40;99.90
15274;DHT22;7738;49.532;11.156;2023-09-18T08:20:41;22.20;99.90
15274;DHT22;7738;49.532;11.156;2023-09-18T08:23:12;20.90;99.90
15274;DHT22;7738;49.532;11.156;2023-09-18T08:25:42;20.90;99.90
15274;DHT22;7738;49.532;11.156;2023-09-18T08:28:14;21.00;99.90
15274;DHT22;7738;49.532;11.156;2023-09-18T08:30:47;21.10;99.90
15274;DHT22;7738;49.532;11.156;2023-09-18T08:33:17;21.10;99.90
15274;DHT22;7738;49.532;11.156;2023-09-18T08:35:47;21.20;99.90
15274;DHT22;7738;49.532;11.156;2023-09-18T08:38:18;21.40;99.90
15274;DHT22;7738;49.532;11.156;2023-09-18T08:40:48;21.90;99.90
15274;DHT22;7738;49.532;11.156;2023-09-18T08:43:21;21.70;99.90
15274;DHT22;7738;49.532;11.156;2023-09-18T08:45:55;22.20;99.90
15274;DHT22;7738;49.532;11.156;2023-09-18T08:48:29;22.10;99.90
15274;DHT22;7738;49.532;11.156;2023-09-18T08:51:02;22.10;99.90
15274;DHT22;7738;49.532;11.156;2023-09-18T08:53:34;22.20;99.90
15274;DHT22;7738;49.532;11.156;2023-09-18T08:56:04;22.40;99.90
15274;DHT22;7738;49.532;11.156;2023-09-18T08:58:37;23.80;99.90
15274;DHT22;7738;49.532;11.156;2023-09-18T09:01:12;23.70;99.90
15274;DHT22;7738;49.532;11.156;2023-09-18T09:03:43;22.90;99.90
15274;DHT22;7738;49.532;11.156;2023-09-18T09:06:14;23.00;99.90
15274;DHT22;7738;49.532;11.156;2023-09-18T09:08:44;23.30;99.90
15274;DHT22;7738;49.532;11.156;2023-09-18T09:11:14;23.60;99.90
15274;DHT22;7738;49.532;11.156;2023-09-18T09:13:46;23.80;99.90
15274;DHT22;7738;49.532;11.156;2023-09-18T09:16:19;24.10;99.90
15274;DHT22;7738;49.532;11.156;2023-09-18T09:18:50;24.40;99.90
15274;DHT22;7738;49.532;11.156;2023-09-18T09:21:21;24.30;99.90
15274;DHT22;7738;49.532;11.156;2023-09-18T09:23:53;25.70;99.90
15274;DHT22;7738;49.532;11.156;2023-09-18T09:26:23;24.20;99.90
15274;DHT22;7738;49.532;11.156;2023-09-18T09:28:54;24.20;99.90
15274;DHT22;7738;49.532;11.156;2023-09-18T09:31:28;24.50;99.90
15274;DHT22;7738;49.532;11.156;2023-09-18T09:33:58;24.30;99.90
15274;DHT22;7738;49.532;11.156;2023-09-18T09:36:32;24.70;99.90
15274;DHT22;7738;49.532;11.156;2023-09-18T09:39:02;24.30;99.90
15274;DHT22;7738;49.532;11.156;2023-09-18T09:41:34;24.90;99.90
15274;DHT22;7738;49.532;11.156;2023-09-18T09:44:05;24.40;99.90
15274;DHT22;7738;49.532;11.156;2023-09-18T09:46:45;24.60;99.90
15274;DHT22;7738;49.532;11.156;2023-09-18T09:49:16;26.40;99.90
15274;DHT22;7738;49.532;11.156;2023-09-18T09:51:46;24.90;99.90
15274;DHT22;7738;49.532;11.156;2023-09-18T09:54:31;25.90;99.50
15274;DHT22;7738;49.532;11.156;2023-09-18T09:57:08;25.80;98.60
15274;DHT22;7738;49.532;11.156;2023-09-18T09:59:38;25.60;97.30
15274;DHT22;7738;49.532;11.156;2023-09-18T10:02:15;25.90;97.60
15274;DHT22;7738;49.532;11.156;2023-09-18T10:04:48;26.10;97.50
15274;DHT22;7738;49.532;11.156;2023-09-18T10:07:19;26.30;96.20
15274;DHT22;7738;49.532;11.156;2023-09-18T10:09:50;26.80;96.60
15274;DHT22;7738;49.532;11.156;2023-09-18T10:12:21;26.40;95.20
15274;DHT22;7738;49.532;11.156;2023-09-18T10:14:53;26.60;95.00
15274;DHT22;7738;49.532;11.156;2023-09-18T10:17:32;26.90;95.10
15274;DHT22;7738;49.532;11.156;2023-09-18T10:20:08;28.00;94.90
15274;DHT22;7738;49.532;11.156;2023-09-18T10:22:45;26.40;94.60
15274;DHT22;7738;49.532;11.156;2023-09-18T10:25:20;27.00;94.70
15274;DHT22;7738;49.532;11.156;2023-09-18T10:27:52;26.70;93.90
15274;DHT22;7738;49.532;11.156;2023-09-18T10:30:26;27.80;94.70
15274;DHT22;7738;49.532;11.156;2023-09-18T10:32:59;26.80;93.00
15274;DHT22;7738;49.532;11.156;2023-09-18T10:35:30;25.90;94.00
15274;DHT22;7738;49.532;11.156;2023-09-18T10:38:01;25.60;93.80
15274;DHT22;7738;49.532;11.156;2023-09-18T10:40:33;25.50;95.40
15274;DHT22;7738;49.532;11.156;2023-09-18T10:43:05;25.80;95.80
15274;DHT22;7738;49.532;11.156;2023-09-18T10:45:38;25.40;95.90
15274;DHT22;7738;49.532;11.156;2023-09-18T10:48:12;26.30;96.00
15274;DHT22;7738;49.532;11.156;2023-09-18T10:50:43;25.90;96.10
15274;DHT22;7738;49.532;11.156;2023-09-18T10:53:13;25.80;96.30
15274;DHT22;7738;49.532;11.156;2023-09-18T10:55:44;25.20;96.30
15274;DHT22;7738;49.532;11.156;2023-09-18T10:58:23;25.60;95.70
15274;DHT22;7738;49.532;11.156;2023-09-18T11:00:54;24.90;95.50
15274;DHT22;7738;49.532;11.156;2023-09-18T11:03:27;24.90;95.90
15274;DHT22;7738;49.532;11.156;2023-09-18T11:06:05;24.70;96.10
15274;DHT22;7738;49.532;11.156;2023-09-18T11:08:43;24.50;95.50
15274;DHT22;7738;49.532;11.156;2023-09-18T11:11:16;26.50;97.10
15274;DHT22;7738;49.532;11.156;2023-09-18T11:13:50;25.50;97.40
15274;DHT22;7738;49.532;11.156;2023-09-18T11:16:34;24.20;97.20
15274;DHT22;7738;49.532;11.156;2023-09-18T11:19:11;25.90;98.60
15274;DHT22;7738;49.532;11.156;2023-09-18T11:21:42;24.00;98.70
15274;DHT22;7738;49.532;11.156;2023-09-18T11:24:17;25.60;99.90
15274;DHT22;7738;49.532;11.156;2023-09-18T11:26:49;23.60;98.80
15274;DHT22;7738;49.532;11.156;2023-09-18T11:29:22;23.40;99.80
15274;DHT22;7738;49.532;11.156;2023-09-18T11:31:55;25.10;99.90
15274;DHT22;7738;49.532;11.156;2023-09-18T11:34:35;23.20;99.90
15274;DHT22;7738;49.532;11.156;2023-09-18T11:37:20;23.10;99.90
15274;DHT22;7738;49.532;11.156;2023-09-18T11:39:50;23.20;99.90
15274;DHT22;7738;49.532;11.156;2023-09-18T11:42:21;23.00;99.90
15274;DHT22;7738;49.532;11.156;2023-09-18T11:44:56;23.00;99.40
15274;DHT22;7738;49.532;11.156;2023-09-18T11:47:27;22.90;99.80
15274;DHT22;7738;49.532;11.156;2023-09-18T11:50:02;23.70;99.40
15274;DHT22;7738;49.532;11.156;2023-09-18T11:52:38;22.70;99.60
15274;DHT22;7738;49.532;11.156;2023-09-18T11:55:09;22.90;99.90
15274;DHT22;7738;49.532;11.156;2023-09-18T11:57:40;22.70;99.90
15274;DHT22;7738;49.532;11.156;2023-09-18T12:00:19;22.70;99.90
15274;DHT22;7738;49.532;11.156;2023-09-18T12:02:54;22.70;99.30
15274;DHT22;7738;49.532;11.156;2023-09-18T12:05:28;22.70;98.50
15274;DHT22;7738;49.532;11.156;2023-09-18T12:07:58;22.60;98.40
15274;DHT22;7738;49.532;11.156;2023-09-18T12:10:28;22.20;99.00
15274;DHT22;7738;49.532;11.156;2023-09-18T12:12:59;22.30;99.80
15274;DHT22;7738;49.532;11.156;2023-09-18T12:15:31;22.70;99.90
15274;DHT22;7738;49.532;11.156;2023-09-18T12:18:08;22.10;99.90
15274;DHT22;7738;49.532;11.156;2023-09-18T12:20:48;21.90;99.90
15274;DHT22;7738;49.532;11.156;2023-09-18T12:23:18;21.60;99.90
15274;DHT22;7738;49.532;11.156;2023-09-18T12:25:51;21.40;99.90
15274;DHT22;7738;49.532;11.156;2023-09-18T12:28:26;21.10;99.90
15274;DHT22;7738;49.532;11.156;2023-09-18T12:30:59;20.90;99.90
15274;DHT22;7738;49.532;11.156;2023-09-18T12:33:34;20.70;99.90
15274;DHT22;7738;49.532;11.156;2023-09-18T12:36:09;20.90;99.90
15274;DHT22;7738;49.532;11.156;2023-09-18T12:38:41;22.20;99.90
15274;DHT22;7738;49.532;11.156;2023-09-18T12:41:12;21.00;99.90
15274;DHT22;7738;49.532;11.156;2023-09-18T12:43:43;19.90;99.90
15274;DHT22;7738;49.532;11.156;2023-09-18T12:46:14;19.80;99.90
15274;DHT22;7738;49.532;11.156;2023-09-18T12:48:45;19.60;99.90
15274;DHT22;7738;49.532;11.156;2023-09-18T12:51:18;19.40;99.90
15274;DHT22;7738;49.532;11.156;2023-09-18T12:53:59;20.00;99.90
15274;DHT22;7738;49.532;11.156;2023-09-18T12:56:40;19.10;99.90
15274;DHT22;7738;49.532;11.156;2023-09-18T12:59:10;18.90;99.90
15274;DHT22;7738;49.532;11.156;2023-09-18T13:01:48;20.60;99.90
15274;DHT22;7738;49.532;11.156;2023-09-18T13:04:18;18.70;99.90
15274;DHT22;7738;49.532;11.156;2023-09-18T13:07:13;18.70;99.90
15274;DHT22;7738;49.532;11.156;2023-09-18T13:09:58;18.70;99.90
15274;DHT22;7738;49.532;11.156;2023-09-18T13:12:39;18.70;99.90
15274;DHT22;7738;49.532;11.156;2023-09-18T13:15:10;20.70;99.90
15274;DHT22;7738;49.532;11.156;2023-09-18T13:17:41;18.50;99.90
15274;DHT22;7738;49.532;11.156;2023-09-18T13:20:16;18.40;99.90
15274;DHT22;7738;49.532;11.156;2023-09-18T13:22:51;18.40;99.90
15274;DHT22;7738;49.532;11.156;2023-09-18T13:25:23;18.40;99.90
15274;DHT22;7738;49.532;11.156;2023-09-18T13:27:54;18.40;99.90
15274;DHT22;7738;49.532;11.156;2023-09-18T13:30:24;18.40;99.90
15274;DHT22;7738;49.532;11.156;2023-09-18T13:33:02;18.40;99.90
15274;DHT22;7738;49.532;11.156;2023-09-18T13:35:34;18.40;99.90
15274;DHT22;7738;49.532;11.156;2023-09-18T13:38:08;19.70;99.90
15274;DHT22;7738;49.532;11.156;2023-09-18T13:40:39;21.00;99.90
15274;DHT22;7738;49.532;11.156;2023-09-18T13:43:10;19.10;99.90
15274;DHT22;7738;49.532;11.156;2023-09-18T13:45:42;18.10;99.90
15274;DHT22;7738;49.532;11.156;2023-09-18T13:48:12;18.10;99.90
15274;DHT22;7738;49.532;11.156;2023-09-18T13:50:43;18.10;99.90
15274;DHT22;7738;49.532;11.156;2023-09-18T13:53:16;18.00;99.90
15274;DHT22;7738;49.532;11.156;2023-09-18T13:55:46;17.90;99.90
15274;DHT22;7738;49.532;11.156;2023-09-18T13:58:16;17.80;99.90
15274;DHT22;7738;49.532;11.156;2023-09-18T14:00:47;18.70;99.90
15274;DHT22;7738;49.532;11.156;2023-09-18T14:03:17;19.70;99.90
15274;DHT22;7738;49.532;11.156;2023-09-18T14:05:47;19.60;99.90
15274;DHT22;7738;49.532;11.156;2023-09-18T14:08:20;17.40;99.90
15274;DHT22;7738;49.532;11.156;2023-09-18T14:10:50;19.10;99.90
15274;DHT22;7738;49.532;11.156;2023-09-18T14:13:20;18.90;99.90
15274;DHT22;7738;49.532;11.156;2023-09-18T14:15:50;17.40;99.90
15274;DHT22;7738;49.532;11.156;2023-09-18T14:18:20;17.50;99.90
15274;DHT22;7738;49.532;11.156;2023-09-18T14:20:51;17.40;99.90
15274;DHT22;7738;49.532;11.156;2023-09-18T14:23:24;17.30;99.90
15274;DHT22;7738;49.532;11.156;2023-09-18T14:25:54;18.90;99.90
15274;DHT22;7738;49.532;11.156;2023-09-18T14:28:26;19.20;99.90
15274;DHT22;7738;49.532;11.156;2023-09-18T14:30:56;17.20;99.90
15274;DHT22;7738;49.532;11.156;2023-09-18T14:33:26;17.30;99.90
15274;DHT22;7738;49.532;11.156;2023-09-18T14:35:56;17.30;99.90
15274;DHT22;7738;49.532;11.156;2023-09-18T14:38:29;17.20;99.90
15274;DHT22;7738;49.532;11.156;2023-09-18T14:40:59;17.20;99.90
15274;DHT22;7738;49.532;11.156;2023-09-18T14:43:30;17.20;99.90
15274;DHT22;7738;49.532;11.156;2023-09-18T14:46:02;17.10;99.90
15274;DHT22;7738;49.532;11.156;2023-09-18T14:48:34;18.50;99.90
15274;DHT22;7738;49.532;11.156;2023-09-18T14:51:05;17.00;99.90
15274;DHT22;7738;49.532;11.156;2023-09-18T14:53:38;17.00;99.90
15274;DHT22;7738;49.532;11.156;2023-09-18T14:56:08;16.90;99.90
15274;DHT22;7738;49.532;11.156;2023-09-18T14:58:41;16.90;99.90
15274;DHT22;7738;49.532;11.156;2023-09-18T15:01:11;17.00;99.90
15274;DHT22;7738;49.532;11.156;2023-09-18T15:03:42;17.00;99.90
15274;DHT22;7738;49.532;11.156;2023-09-18T15:06:14;17.00;99.90
15274;DHT22;7738;49.532;11.156;2023-09-18T15:08:47;17.00;99.90
15274;DHT22;7738;49.532;11.156;2023-09-18T15:11:18;17.10;99.90
15274;DHT22;7738;49.532;11.156;2023-09-18T15:13:48;17.00;99.90
15274;DHT22;7738;49.532;11.156;2023-09-18T15:16:18;17.00;99.90
15274;DHT22;7738;49.532;11.156;2023-09-18T15:18:48;17.00;99.90
15274;DHT22;7738;49.532;11.156;2023-09-18T15:21:24;18.90;99.90
15274;DHT22;7738;49.532;11.156;2023-09-18T15:23:57;17.00;99.90
15274;DHT22;7738;49.532;11.156;2023-09-18T15:26:27;17.00;99.90
15274;DHT22;7738;49.532;11.156;2023-09-18T15:28:58;17.00;99.90
15274;DHT22;7738;49.532;11.156;2023-09-18T15:31:28;17.10;99.90
15274;DHT22;7738;49.532;11.156;2023-09-18T15:33:58;17.20;99.90
15274;DHT22;7738;49.532;11.156;2023-09-18T15:36:29;17.10;99.90
15274;DHT22;7738;49.532;11.156;2023-09-18T15:39:01;17.10;99.90
15274;DHT22;7738;49.532;11.156;2023-09-18T15:41:31;17.10;99.90
15274;DHT22;7738;49.532;11.156;2023-09-18T15:44:02;17.00;99.90
15274;DHT22;7738;49.532;11.156;2023-09-18T15:46:32;17.00;99.90
15274;DHT22;7738;49.532;11.156;2023-09-18T15:49:03;17.10;99.90
15274;DHT22;7738;49.532;11.156;2023-09-18T15:51:33;17.10;99.90
15274;DHT22;7738;49.532;11.156;2023-09-18T15:54:06;17.10;99.90
15274;DHT22;7738;49.532;11.156;2023-09-18T15:56:36;17.10;99.90
15274;DHT22;7738;49.532;11.156;2023-09-18T15:59:07;18.70;99.90
15274;DHT22;7738;49.532;11.156;2023-09-18T16:01:39;17.20;99.90
15274;DHT22;7738;49.532;11.156;2023-09-18T16:04:10;17.50;99.90
15274;DHT22;7738;49.532;11.156;2023-09-18T16:06:40;17.20;99.90
15274;DHT22;7738;49.532;11.156;2023-09-18T16:09:13;17.20;99.90
15274;DHT22;7738;49.532;11.156;2023-09-18T16:11:44;17.30;99.90
15274;DHT22;7738;49.532;11.156;2023-09-18T16:14:15;17.10;99.90
15274;DHT22;7738;49.532;11.156;2023-09-18T16:16:50;17.10;99.90
15274;DHT22;7738;49.532;11.156;2023-09-18T16:19:21;17.00;99.90
15274;DHT22;7738;49.532;11.156;2023-09-18T16:21:52;18.20;99.90
15274;DHT22;7738;49.532;11.156;2023-09-18T16:24:24;16.90;99.90
15274;DHT22;7738;49.532;11.156;2023-09-18T16:26:55;16.80;99.90
15274;DHT22;7738;49.532;11.156;2023-09-18T16:29:26;16.80;99.90
15274;DHT22;7738;49.532;11.156;2023-09-18T16:31:56;16.80;99.90
15274;DHT22;7738;49.532;11.156;2023-09-18T16:34:26;16.80;99.90
15274;DHT22;7738;49.532;11.156;2023-09-18T16:36:57;16.70;99.90
15274;DHT22;7738;49.532;11.156;2023-09-18T16:39:29;16.70;99.90
15274;DHT22;7738;49.532;11.156;2023-09-18T16:42:00;16.70;99.90
15274;DHT22;7738;49.532;11.156;2023-09-18T16:44:30;16.70;99.90
15274;DHT22;7738;49.532;11.156;2023-09-18T16:47:00;16.70;99.90
15274;DHT22;7738;49.532;11.156;2023-09-18T16:49:30;17.00;99.90
15274;DHT22;7738;49.532;11.156;2023-09-18T16:52:01;16.60;99.90
15274;DHT22;7738;49.532;11.156;2023-09-18T16:54:34;16.60;99.90
15274;DHT22;7738;49.532;11.156;2023-09-18T16:57:04;16.50;99.90
15274;DHT22;7738;49.532;11.156;2023-09-18T16:59:34;16.40;99.90
15274;DHT22;7738;49.532;11.156;2023-09-18T17:02:04;16.90;99.90
15274;DHT22;7738;49.532;11.156;2023-09-18T17:04:35;16.50;99.90
15274;DHT22;7738;49.532;11.156;2023-09-18T17:07:16;16.40;99.90
15274;DHT22;7738;49.532;11.156;2023-09-18T17:09:49;16.50;99.90
15274;DHT22;7738;49.532;11.156;2023-09-18T17:12:19;16.30;99.90
15274;DHT22;7738;49.532;11.156;2023-09-18T17:14:49;16.30;99.90
15274;DHT22;7738;49.532;11.156;2023-09-18T17:17:20;16.30;99.90
15274;DHT22;7738;49.532;11.156;2023-09-18T17:19:50;16.20;99.90
15274;DHT22;7738;49.532;11.156;2023-09-18T17:22:20;16.10;99.90
15274;DHT22;7738;49.532;11.156;2023-09-18T17:24:53;16.10;99.90
15274;DHT22;7738;49.532;11.156;2023-09-18T17:27:23;16.10;99.90
15274;DHT22;7738;49.532;11.156;2023-09-18T17:29:55;17.80;99.90
15274;DHT22;7738;49.532;11.156;2023-09-18T17:32:26;16.00;99.90
15274;DHT22;7738;49.532;11.156;2023-09-18T17:34:57;15.90;99.90
15274;DHT22;7738;49.532;11.156;2023-09-18T17:37:27;15.90;99.90
15274;DHT22;7738;49.532;11.156;2023-09-18T17:40:01;15.90;99.90
15274;DHT22;7738;49.532;11.156;2023-09-18T17:42:32;15.90;99.90
15274;DHT22;7738;49.532;11.156;2023-09-18T17:45:02;15.80;99.90
15274;DHT22;7738;49.532;11.156;2023-09-18T17:47:34;15.70;99.90
15274;DHT22;7738;49.532;11.156;2023-09-18T17:50:05;15.70;99.90
15274;DHT22;7738;49.532;11.156;2023-09-18T17:52:35;15.60;99.90
15274;DHT22;7738;49.532;11.156;2023-09-18T17:55:10;15.60;99.90
15274;DHT22;7738;49.532;11.156;2023-09-18T17:57:40;15.60;99.90
15274;DHT22;7738;49.532;11.156;2023-09-18T18:00:12;15.50;99.90
15274;DHT22;7738;49.532;11.156;2023-09-18T18:02:46;15.50;99.90
15274;DHT22;7738;49.532;11.156;2023-09-18T18:05:17;15.50;99.90
15274;DHT22;7738;49.532;11.156;2023-09-18T18:10:28;15.40;99.90
15274;DHT22;7738;49.532;11.156;2023-09-18T18:12:59;15.40;99.90
15274;DHT22;7738;49.532;11.156;2023-09-18T18:15:30;15.40;99.90
15274;DHT22;7738;49.532;11.156;2023-09-18T18:18:01;15.40;99.90